Time;durP1;ratioP1;P1;durP2;ratioP2;P2;SDS_P1;SDS_P2;PMS_P1;PMS_P2;Temp;Humidity;BMP_temperature;BMP_pressure;BME280_temperature;BME280_humidity;BME280_pressure;Samples;Min_cycle;Max_cycle;Signal;HPM_P1;HPM_P2
2023/03/17 00:00:47;;;;;;;8.80;5.38;;;1.70;99.90;;;;;;4966069;28;20042;-41
2023/03/17 00:03:24;;;;;;;10.55;5.00;;;1.60;99.90;;;;;;4962663;28;20027;-42
2023/03/17 00:05:52;;;;;;;6.25;4.43;;;1.60;99.90;;;;;;4988495;28;20393;-42
2023/03/17 00:08:31;;;;;;;8.40;5.72;;;1.70;99.90;;;;;;4971106;28;20491;-43
2023/03/17 00:10:57;;;;;;;6.65;5.68;;;1.70;99.90;;;;;;4970120;28;20097;-42
2023/03/17 00:13:23;;;;;;;8.82;5.28;;;1.80;99.90;;;;;;4968586;28;20719;-42
2023/03/17 00:16:03;;;;;;;10.68;5.38;;;1.80;99.90;;;;;;4962279;28;21388;-42
2023/03/17 00:18:30;;;;;;;7.05;4.75;;;1.80;99.90;;;;;;4966207;28;20567;-42
2023/03/17 00:20:57;;;;;;;8.63;4.70;;;1.80;99.90;;;;;;4959724;28;20037;-42
2023/03/17 00:23:24;;;;;;;9.13;4.95;;;1.80;99.90;;;;;;4969266;28;20027;-42
2023/03/17 00:25:52;;;;;;;8.95;4.38;;;1.80;99.90;;;;;;4966632;28;20460;-42
2023/03/17 00:28:21;;;;;;;8.80;5.47;;;1.90;99.90;;;;;;4960560;28;20027;-41
2023/03/17 00:30:47;;;;;;;;;;;1.80;99.90;;;;;;4961761;28;20059;-41
2023/03/17 00:33:15;;;;;;;9.20;4.53;;;1.80;99.90;;;;;;4963350;28;20372;-42
2023/03/17 00:35:42;;;;;;;6.50;4.27;;;1.70;99.90;;;;;;4960740;28;20035;-43
2023/03/17 00:38:16;;;;;;;6.35;4.32;;;1.60;99.90;;;;;;4972669;28;20293;-42
2023/03/17 00:40:42;;;;;;;6.78;4.75;;;1.60;99.90;;;;;;4969049;28;20385;-42
2023/03/17 00:43:08;;;;;;;11.85;5.10;;;1.60;99.90;;;;;;4964962;28;20032;-42
2023/03/17 00:45:34;;;;;;;6.22;4.50;;;1.70;99.90;;;;;;4963225;28;20035;-42
2023/03/17 00:48:00;;;;;;;9.85;5.50;;;1.60;99.90;;;;;;4960013;28;20030;-42
2023/03/17 00:50:27;;;;;;;9.65;5.45;;;1.50;99.90;;;;;;4962590;28;20051;-42
2023/03/17 00:52:55;;;;;;;14.25;7.78;;;1.60;99.90;;;;;;4966975;28;20027;-41
2023/03/17 00:55:22;;;;;;;22.52;14.40;;;1.60;99.90;;;;;;4965647;28;20098;-41
2023/03/17 00:57:48;;;;;;;41.42;22.60;;;1.60;99.90;;;;;;4960095;28;20121;-42
2023/03/17 01:00:25;;;;;;;38.10;22.50;;;1.60;99.90;;;;;;4968848;28;20042;-42
2023/03/17 01:02:53;;;;;;;26.17;16.02;;;1.70;99.90;;;;;;4967576;28;20046;-41
2023/03/17 01:05:20;;;;;;;14.63;8.80;;;1.70;99.90;;;;;;4963901;28;20053;-41
2023/03/17 01:07:51;;;;;;;7.30;4.65;;;1.50;99.90;;;;;;4968913;28;20517;-42
2023/03/17 01:10:24;;;;;;;9.05;5.53;;;1.40;99.90;;;;;;4965107;28;20153;-42
2023/03/17 01:12:51;;;;;;;6.85;4.47;;;1.40;99.90;;;;;;4966296;28;20034;-42
2023/03/17 01:15:18;;;;;;;10.13;4.72;;;1.30;99.90;;;;;;4965782;28;20034;-42
2023/03/17 01:17:44;;;;;;;6.07;4.63;;;1.30;99.90;;;;;;4960266;28;20041;-42
2023/03/17 01:20:16;;;;;;;7.50;4.72;;;1.20;99.90;;;;;;4962468;28;20038;-42
2023/03/17 01:22:42;;;;;;;8.90;5.13;;;1.20;99.90;;;;;;4964846;28;20027;-43
2023/03/17 01:25:10;;;;;;;7.60;4.63;;;1.10;99.90;;;;;;4962246;28;20035;-43
2023/03/17 01:27:36;;;;;;;10.80;5.60;;;1.10;99.90;;;;;;4965941;28;20034;-43
2023/03/17 01:30:04;;;;;;;11.73;4.95;;;1.10;99.90;;;;;;4960496;28;20063;-42
2023/03/17 01:32:30;;;;;;;5.43;4.65;;;1.00;99.90;;;;;;4956233;28;20031;-43
2023/03/17 01:34:55;;;;;;;7.50;5.15;;;0.90;99.90;;;;;;4960840;28;20401;-42
2023/03/17 01:37:22;;;;;;;6.32;5.40;;;0.90;99.90;;;;;;4995712;28;20569;-43
2023/03/17 01:39:48;;;;;;;8.85;4.75;;;0.80;99.90;;;;;;4962484;28;20109;-43
2023/03/17 01:42:13;;;;;;;6.30;4.50;;;0.80;99.90;;;;;;4959958;28;20070;-44
2023/03/17 01:45:00;;;;;;;6.75;5.10;;;0.70;99.90;;;;;;4964042;28;20037;-42
2023/03/17 01:47:29;;;;;;;9.23;5.43;;;0.60;99.90;;;;;;4965896;28;20062;-42
2023/03/17 01:49:56;;;;;;;9.07;5.70;;;0.40;99.90;;;;;;4967718;28;20037;-43
2023/03/17 01:52:22;;;;;;;8.38;5.47;;;0.30;99.90;;;;;;4965760;28;20038;-42
2023/03/17 01:54:51;;;;;;;6.32;4.20;;;0.30;99.90;;;;;;4971388;28;20049;-43
2023/03/17 01:57:21;;;;;;;6.97;5.25;;;0.30;99.90;;;;;;4963169;28;20078;-43
2023/03/17 01:59:53;;;;;;;7.43;5.30;;;0.30;99.90;;;;;;4968469;28;20527;-43
2023/03/17 02:02:28;;;;;;;6.25;4.43;;;0.20;99.90;;;;;;4956146;28;20035;-43
2023/03/17 02:04:54;;;;;;;7.28;4.68;;;0.20;99.90;;;;;;4968125;28;20042;-42
2023/03/17 02:07:21;;;;;;;5.60;4.18;;;0.20;99.90;;;;;;4968501;28;20497;-43
2023/03/17 02:09:47;;;;;;;8.02;4.72;;;0.20;99.90;;;;;;4964782;28;20047;-42
2023/03/17 02:12:14;;;;;;;6.70;4.43;;;0.30;99.90;;;;;;4961658;28;20082;-42
2023/03/17 02:14:40;;;;;;;5.65;4.53;;;0.50;99.90;;;;;;4972333;28;20105;-43
2023/03/17 02:17:06;;;;;;;7.93;5.53;;;0.60;99.90;;;;;;4965954;28;20031;-43
2023/03/17 02:19:33;;;;;;;7.20;4.80;;;0.60;99.90;;;;;;4965312;28;20062;-43
2023/03/17 02:21:59;;;;;;;7.30;4.43;;;0.60;99.90;;;;;;4965250;28;20037;-43
2023/03/17 02:24:32;;;;;;;6.95;5.13;;;0.70;99.90;;;;;;4965748;28;20039;-46
2023/03/17 02:27:04;;;;;;;10.27;4.72;;;0.60;99.90;;;;;;4962082;28;20077;-43
2023/03/17 02:29:33;;;;;;;7.78;4.38;;;0.50;99.90;;;;;;4964070;28;20035;-43
2023/03/17 02:31:59;;;;;;;8.00;5.85;;;0.50;99.90;;;;;;4962553;28;20035;-43
2023/03/17 02:34:25;;;;;;;6.78;4.90;;;0.50;99.90;;;;;;4961033;28;20082;-43
2023/03/17 02:36:51;;;;;;;6.75;5.32;;;0.60;99.90;;;;;;4963396;28;20110;-43
2023/03/17 02:39:16;;;;;;;7.13;5.22;;;0.60;99.90;;;;;;4961384;28;20519;-43
2023/03/17 02:41:42;;;;;;;9.57;5.60;;;0.70;99.90;;;;;;4965494;28;20102;-43
2023/03/17 02:44:08;;;;;;;7.70;5.00;;;0.70;99.90;;;;;;4964592;28;20046;-44
2023/03/17 02:46:35;;;;;;;9.55;5.32;;;0.70;99.90;;;;;;4951184;28;20067;-43
2023/03/17 02:49:01;;;;;;;7.63;5.40;;;0.80;99.90;;;;;;4944598;28;20055;-43
2023/03/17 02:51:27;;;;;;;6.95;4.70;;;0.80;99.90;;;;;;4947221;28;20055;-43
2023/03/17 02:53:52;;;;;;;6.82;4.63;;;0.80;99.90;;;;;;4946107;28;20027;-43
2023/03/17 02:56:18;;;;;;;5.38;4.85;;;0.80;99.90;;;;;;4946460;28;20114;-43
2023/03/17 02:58:44;;;;;;;11.13;4.70;;;0.90;99.90;;;;;;4955642;28;20393;-43
2023/03/17 03:01:10;;;;;;;6.60;4.65;;;0.80;99.90;;;;;;4962142;28;21813;-43
2023/03/17 03:03:36;;;;;;;6.53;5.28;;;0.80;99.90;;;;;;4958866;28;20034;-43
2023/03/17 03:06:02;;;;;;;8.05;5.57;;;0.90;99.90;;;;;;4965169;28;20027;-43
2023/03/17 03:08:27;;;;;;;6.70;4.63;;;0.90;99.90;;;;;;4964363;28;20023;-43
2023/03/17 03:10:53;;;;;;;7.25;4.53;;;0.70;99.90;;;;;;4965537;28;20114;-43
2023/03/17 03:13:19;;;;;;;8.20;5.65;;;0.70;99.90;;;;;;4959429;28;20171;-43
2023/03/17 03:15:46;;;;;;;9.57;5.65;;;0.60;99.90;;;;;;4965037;28;20517;-43
2023/03/17 03:18:11;;;;;;;8.98;5.25;;;0.60;99.90;;;;;;4967010;28;20023;-47
2023/03/17 03:20:40;;;;;;;8.93;6.32;;;0.60;99.90;;;;;;4956744;28;20198;-42
2023/03/17 03:23:06;;;;;;;11.70;6.00;;;0.60;99.90;;;;;;4967102;28;20058;-42
2023/03/17 03:25:32;;;;;;;7.15;5.40;;;0.60;99.90;;;;;;4962206;28;20039;-42
2023/03/17 03:27:57;;;;;;;6.50;5.00;;;0.60;99.90;;;;;;4962217;28;20188;-42
2023/03/17 03:30:23;;;;;;;7.70;5.20;;;0.60;99.90;;;;;;4959739;28;20035;-42
2023/03/17 03:32:49;;;;;;;8.73;5.63;;;0.70;99.90;;;;;;4960299;28;20067;-43
2023/03/17 03:35:15;;;;;;;7.05;5.43;;;0.70;99.90;;;;;;4961725;28;20754;-44
2023/03/17 03:37:41;;;;;;;7.15;5.30;;;0.80;99.90;;;;;;4963405;28;20026;-42
2023/03/17 03:40:07;;;;;;;12.25;6.15;;;0.80;99.90;;;;;;4970375;28;20501;-42
2023/03/17 03:42:33;;;;;;;9.82;5.43;;;0.90;99.90;;;;;;4963673;28;20098;-43
2023/03/17 03:44:59;;;;;;;7.82;5.38;;;1.00;99.90;;;;;;4960020;28;20035;-42
2023/03/17 03:47:25;;;;;;;9.27;5.40;;;1.00;99.90;;;;;;4965024;28;20031;-42
2023/03/17 03:49:50;;;;;;;14.80;6.38;;;1.00;99.90;;;;;;4970046;28;20034;-42
2023/03/17 03:52:16;;;;;;;8.65;5.72;;;1.10;99.90;;;;;;4966847;28;20070;-42
2023/03/17 03:54:42;;;;;;;8.48;5.20;;;1.10;99.90;;;;;;4964153;28;20552;-42
2023/03/17 03:57:07;;;;;;;7.82;4.78;;;1.20;99.90;;;;;;4967815;28;20031;-42
2023/03/17 03:59:33;;;;;;;8.00;4.22;;;1.20;99.90;;;;;;4957597;28;20041;-42
2023/03/17 04:01:58;;;;;;;6.65;4.50;;;1.10;99.90;;;;;;4947793;28;20039;-42
2023/03/17 04:04:24;;;;;;;7.10;5.60;;;1.10;99.90;;;;;;4954971;28;20041;-42
2023/03/17 04:06:49;;;;;;;8.32;5.68;;;1.10;99.90;;;;;;4952253;28;20035;-42
2023/03/17 04:09:15;;;;;;;6.97;4.95;;;1.10;99.90;;;;;;4951014;28;20576;-42
2023/03/17 04:11:41;;;;;;;7.30;4.63;;;1.10;99.90;;;;;;4950929;28;20055;-42
2023/03/17 04:14:07;;;;;;;7.40;4.75;;;1.10;99.90;;;;;;4947816;28;20080;-42
2023/03/17 04:16:32;;;;;;;6.43;4.82;;;1.00;99.90;;;;;;4963021;28;20027;-42
2023/03/17 04:18:58;;;;;;;11.77;6.18;;;1.00;99.90;;;;;;4954394;28;20511;-42
2023/03/17 04:21:24;;;;;;;6.57;4.78;;;1.00;99.90;;;;;;4959717;28;20383;-42
2023/03/17 04:23:50;;;;;;;10.20;6.47;;;1.10;99.90;;;;;;4965131;28;20039;-42
2023/03/17 04:26:17;;;;;;;7.68;5.53;;;1.10;99.90;;;;;;4963644;28;20566;-42
2023/03/17 04:28:43;;;;;;;8.02;4.95;;;1.10;99.90;;;;;;4960167;28;20034;-42
2023/03/17 04:31:11;;;;;;;7.95;5.63;;;1.20;99.90;;;;;;4948666;28;20043;-42
2023/03/17 04:33:37;;;;;;;7.85;4.97;;;1.20;99.90;;;;;;4948807;28;20082;-42
2023/03/17 04:36:03;;;;;;;14.90;6.78;;;1.20;99.90;;;;;;4951313;28;20062;-42
2023/03/17 04:38:29;;;;;;;8.48;5.28;;;1.30;99.90;;;;;;4950215;28;20049;-42
2023/03/17 04:40:55;;;;;;;10.15;5.35;;;1.30;99.90;;;;;;4950135;28;20028;-41
2023/03/17 04:43:20;;;;;;;5.63;4.68;;;1.30;99.90;;;;;;4946879;28;20095;-42
2023/03/17 04:45:46;;;;;;;6.10;4.55;;;1.30;99.90;;;;;;4955244;28;20089;-41
2023/03/17 04:48:11;;;;;;;8.25;4.82;;;1.30;99.90;;;;;;4949997;28;20038;-41
2023/03/17 04:50:37;;;;;;;7.25;5.43;;;1.30;99.90;;;;;;4945999;28;20058;-41
2023/03/17 04:53:03;;;;;;;6.28;5.05;;;1.30;99.90;;;;;;4946419;28;20478;-42
2023/03/17 04:55:29;;;;;;;8.48;5.35;;;1.30;99.90;;;;;;4961220;28;20019;-42
2023/03/17 04:57:55;;;;;;;10.65;5.03;;;1.30;99.90;;;;;;4950214;28;20439;-42
2023/03/17 05:00:20;;;;;;;8.60;4.47;;;1.30;99.90;;;;;;4945443;28;20035;-42
2023/03/17 05:02:46;;;;;;;7.95;5.40;;;1.40;99.90;;;;;;4947484;28;20038;-41
2023/03/17 05:05:12;;;;;;;7.72;4.80;;;1.40;99.90;;;;;;4947163;28;20102;-41
2023/03/17 05:07:38;;;;;;;8.63;5.07;;;1.40;99.90;;;;;;4949888;28;20039;-42
2023/03/17 05:10:05;;;;;;;6.15;4.75;;;1.40;99.90;;;;;;4948183;28;20551;-42
2023/03/17 05:12:31;;;;;;;5.80;4.88;;;1.40;99.90;;;;;;4948278;28;20027;-42
2023/03/17 05:14:56;;;;;;;11.23;5.60;;;1.40;99.90;;;;;;4945944;28;20035;-32
2023/03/17 05:17:22;;;;;;;9.10;5.32;;;1.40;99.90;;;;;;4947957;28;20085;-34
2023/03/17 05:19:47;;;;;;;9.50;5.43;;;1.50;99.90;;;;;;4949513;28;20102;-32
2023/03/17 05:22:13;;;;;;;9.27;5.38;;;1.50;99.90;;;;;;4947275;28;20035;-33
2023/03/17 05:24:39;;;;;;;5.60;4.60;;;1.50;99.90;;;;;;4949750;28;20057;-35
2023/03/17 05:27:04;;;;;;;7.95;5.43;;;1.60;99.90;;;;;;4953093;28;20038;-35
2023/03/17 05:29:30;;;;;;;7.13;4.95;;;1.60;99.90;;;;;;4950248;28;20035;-32
2023/03/17 05:31:55;;;;;;;7.45;5.25;;;1.60;99.90;;;;;;4964994;28;20034;-34
2023/03/17 05:34:21;;;;;;;11.90;6.10;;;1.50;99.90;;;;;;4966924;28;20030;-33
2023/03/17 05:36:47;;;;;;;10.52;5.30;;;1.50;99.90;;;;;;4977641;28;20026;-35
2023/03/17 05:39:13;;;;;;;8.05;6.72;;;1.40;99.90;;;;;;4968364;28;20061;-33
2023/03/17 05:41:38;;;;;;;22.02;11.52;;;1.40;99.90;;;;;;4963741;28;20030;-34
2023/03/17 05:44:04;;;;;;;15.60;8.65;;;1.40;99.90;;;;;;4966898;28;20041;-33
2023/03/17 05:46:30;;;;;;;15.25;10.98;;;1.30;99.90;;;;;;4969495;28;20522;-34
2023/03/17 05:48:56;;;;;;;13.82;9.45;;;1.30;99.90;;;;;;4972650;28;20037;-38
2023/03/17 05:51:21;;;;;;;14.07;9.73;;;1.30;99.90;;;;;;4978416;28;20046;-33
2023/03/17 05:53:47;;;;;;;28.75;15.93;;;1.30;99.90;;;;;;4978804;28;20106;-34
2023/03/17 05:56:13;;;;;;;17.65;9.63;;;1.40;99.90;;;;;;4980779;28;20076;-32
2023/03/17 05:58:39;;;;;;;11.10;6.32;;;1.30;99.90;;;;;;4988660;28;20137;-32
2023/03/17 06:01:04;;;;;;;9.32;7.43;;;1.20;99.90;;;;;;4966046;28;20126;-32
2023/03/17 06:03:30;;;;;;;11.30;5.80;;;1.10;99.90;;;;;;4952074;28;20027;-35
2023/03/17 06:05:56;;;;;;;7.43;5.15;;;1.20;99.90;;;;;;4945877;28;20162;-34
2023/03/17 06:08:21;;;;;;;6.85;5.00;;;1.20;99.90;;;;;;4946051;28;20027;-31
2023/03/17 06:10:47;;;;;;;7.57;4.80;;;1.30;99.90;;;;;;4953829;28;20043;-35
2023/03/17 06:13:13;;;;;;;9.20;5.60;;;1.30;99.90;;;;;;4946237;28;21182;-33
2023/03/17 06:15:40;;;;;;;6.60;5.55;;;1.40;99.90;;;;;;4945388;28;20063;-31
2023/03/17 06:18:06;;;;;;;6.25;4.50;;;1.40;99.90;;;;;;4946617;28;20029;-33
2023/03/17 06:20:33;;;;;;;8.82;5.60;;;1.40;99.90;;;;;;4946219;28;20031;-31
2023/03/17 06:22:59;;;;;;;5.55;4.68;;;1.40;99.90;;;;;;4949175;28;20039;-33
2023/03/17 06:25:25;;;;;;;8.13;5.45;;;1.30;99.90;;;;;;4949374;28;20045;-33
2023/03/17 06:27:53;;;;;;;8.55;4.63;;;1.40;99.90;;;;;;4941600;28;20038;-35
2023/03/17 06:30:19;;;;;;;9.27;4.85;;;1.40;99.90;;;;;;4947951;28;20767;-32
2023/03/17 06:32:45;;;;;;;10.68;5.60;;;1.50;99.90;;;;;;4945587;28;20496;-35
2023/03/17 06:35:12;;;;;;;8.45;5.65;;;1.60;99.90;;;;;;4949323;28;20031;-34
2023/03/17 06:37:37;;;;;;;4.95;4.03;;;1.60;99.90;;;;;;4958512;28;20034;-32
2023/03/17 06:40:08;;;;;;;7.40;5.30;;;1.70;99.90;;;;;;4962100;28;20030;-31
2023/03/17 06:42:33;;;;;;;8.90;5.47;;;1.60;99.90;;;;;;4962772;28;20424;-31
2023/03/17 06:44:59;;;;;;;8.35;5.57;;;1.50;99.90;;;;;;4962601;28;20464;-32
2023/03/17 06:47:25;;;;;;;7.40;6.45;;;1.50;99.90;;;;;;4961393;28;20781;-31
2023/03/17 06:49:50;;;;;;;8.23;6.07;;;1.60;99.90;;;;;;4961446;28;20122;-35
2023/03/17 06:52:16;;;;;;;8.85;5.45;;;1.80;99.90;;;;;;4956332;28;20041;-33
2023/03/17 06:54:43;;;;;;;8.77;5.97;;;1.90;99.90;;;;;;4968538;28;20492;-32
2023/03/17 06:57:09;;;;;;;12.00;6.63;;;1.90;99.90;;;;;;4962920;28;20031;-33
2023/03/17 06:59:35;;;;;;;12.25;6.43;;;2.00;99.90;;;;;;4966992;28;20124;-32
2023/03/17 07:02:01;;;;;;;9.48;6.63;;;2.10;99.90;;;;;;4954107;28;20035;-35
2023/03/17 07:04:27;;;;;;;11.88;7.35;;;2.20;99.90;;;;;;4957899;28;20067;-33
2023/03/17 07:06:52;;;;;;;7.88;5.95;;;2.30;99.90;;;;;;4960907;28;20441;-31
2023/03/17 07:09:18;;;;;;;9.52;6.45;;;2.30;99.90;;;;;;4961593;28;20027;-34
2023/03/17 07:11:43;;;;;;;10.32;7.15;;;2.40;99.90;;;;;;4965711;28;20424;-35
2023/03/17 07:14:09;;;;;;;15.40;6.03;;;2.50;99.90;;;;;;4971809;28;20030;-31
2023/03/17 07:16:35;;;;;;;8.75;6.20;;;2.60;99.90;;;;;;4964714;28;20097;-34
2023/03/17 07:19:00;;;;;;;10.30;6.30;;;2.60;99.90;;;;;;4961066;28;20613;-31
2023/03/17 07:21:26;;;;;;;11.05;6.28;;;2.60;99.90;;;;;;4963733;28;20027;-31
2023/03/17 07:23:52;;;;;;;10.90;5.97;;;2.70;99.90;;;;;;4965613;28;20034;-34
2023/03/17 07:26:18;;;;;;;8.68;7.07;;;2.80;99.90;;;;;;4966701;28;20023;-35
2023/03/17 07:28:43;;;;;;;8.80;5.85;;;3.00;99.90;;;;;;4972771;28;20034;-34
2023/03/17 07:31:12;;;;;;;8.10;6.43;;;3.10;99.90;;;;;;4958248;28;20500;-31
2023/03/17 07:33:39;;;;;;;14.52;7.07;;;3.20;99.90;;;;;;4963608;28;20041;-31
2023/03/17 07:36:06;;;;;;;7.75;5.75;;;3.40;99.90;;;;;;4961184;28;20038;-34
2023/03/17 07:38:32;;;;;;;7.53;5.55;;;3.60;99.90;;;;;;4964644;28;20037;-32
2023/03/17 07:40:58;;;;;;;7.90;5.63;;;3.70;99.90;;;;;;4955039;28;20097;-31
2023/03/17 07:43:24;;;;;;;7.35;5.50;;;3.70;99.90;;;;;;4947301;28;20031;-32
2023/03/17 07:45:50;;;;;;;8.27;5.57;;;3.80;99.90;;;;;;4949429;28;20430;-32
2023/03/17 07:48:17;;;;;;;10.48;6.47;;;3.80;99.90;;;;;;4950986;28;20113;-32
2023/03/17 07:50:44;;;;;;;7.25;5.45;;;3.80;99.90;;;;;;4948454;28;20043;-32
2023/03/17 07:53:09;;;;;;;8.40;5.80;;;4.00;99.90;;;;;;4948828;28;20531;-34
2023/03/17 07:55:37;;;;;;;10.68;6.45;;;4.20;99.90;;;;;;4949179;28;20026;-35
2023/03/17 07:58:03;;;;;;;8.37;5.70;;;4.40;99.90;;;;;;4950875;28;20085;-33
2023/03/17 08:00:29;;;;;;;8.50;5.78;;;4.50;99.90;;;;;;4948916;28;20027;-34
2023/03/17 08:02:55;;;;;;;7.95;6.40;;;4.70;99.90;;;;;;4946284;28;20402;-35
2023/03/17 08:05:20;;;;;;;9.75;5.95;;;4.90;99.90;;;;;;4958114;28;20026;-33
2023/03/17 08:07:46;;;;;;;8.82;5.90;;;5.00;99.90;;;;;;4965351;28;20046;-35
2023/03/17 08:10:12;;;;;;;5.25;4.55;;;5.20;99.90;;;;;;4969148;28;20062;-34
2023/03/17 08:12:38;;;;;;;8.48;5.88;;;5.20;99.90;;;;;;4967740;28;20183;-34
2023/03/17 08:15:05;;;;;;;9.48;6.63;;;5.20;99.90;;;;;;4968349;28;20046;-35
2023/03/17 08:17:31;;;;;;;8.50;6.15;;;5.40;99.90;;;;;;4962664;28;20382;-31
2023/03/17 08:19:57;;;;;;;9.85;6.70;;;5.50;99.90;;;;;;4964018;28;20513;-33
2023/03/17 08:22:23;;;;;;;8.48;6.35;;;5.70;99.90;;;;;;4957317;28;20038;-34
2023/03/17 08:24:50;;;;;;;6.93;5.60;;;5.90;99.90;;;;;;4967642;28;20122;-31
2023/03/17 08:27:17;;;;;;;9.45;5.78;;;6.00;99.90;;;;;;4960845;28;20025;-35
2023/03/17 08:29:44;;;;;;;10.40;6.03;;;6.10;99.90;;;;;;4955567;28;20058;-31
2023/03/17 08:32:09;;;;;;;7.45;5.00;;;6.10;99.90;;;;;;4961240;28;20334;-35
2023/03/17 08:34:35;;;;;;;6.45;5.78;;;6.20;99.90;;;;;;4960917;28;20488;-33
2023/03/17 08:37:02;;;;;;;6.75;5.40;;;6.30;99.90;;;;;;4961117;28;20393;-35
2023/03/17 08:39:29;;;;;;;8.45;5.10;;;6.30;99.90;;;;;;4962617;28;20038;-34
2023/03/17 08:41:55;;;;;;;7.43;5.50;;;6.40;99.90;;;;;;4951315;28;20039;-34
2023/03/17 08:44:21;;;;;;;6.15;5.47;;;6.50;99.90;;;;;;4975475;28;20053;-33
2023/03/17 08:46:48;;;;;;;12.00;5.75;;;6.50;99.90;;;;;;4950607;28;20149;-35
2023/03/17 08:49:14;;;;;;;8.77;5.28;;;6.60;99.90;;;;;;4959368;28;20030;-34
2023/03/17 08:51:41;;;;;;;8.48;5.40;;;6.80;99.90;;;;;;4952529;28;20054;-34
2023/03/17 08:54:07;;;;;;;6.65;4.75;;;6.80;99.90;;;;;;4960110;28;20086;-32
2023/03/17 08:56:33;;;;;;;10.52;5.82;;;6.90;99.90;;;;;;4966492;28;20027;-34
2023/03/17 08:58:59;;;;;;;10.95;5.57;;;7.00;99.90;;;;;;4972422;28;20039;-32
2023/03/17 09:01:26;;;;;;;8.52;5.88;;;7.10;99.90;;;;;;4959168;28;20435;-34
2023/03/17 09:03:53;;;;;;;7.20;4.95;;;7.30;99.90;;;;;;4968136;28;20084;-32
2023/03/17 09:06:19;;;;;;;9.32;5.22;;;7.50;99.90;;;;;;4963609;28;20517;-34
2023/03/17 09:08:46;;;;;;;5.95;4.57;;;7.50;99.90;;;;;;4961550;28;20105;-32
2023/03/17 09:11:17;;;;;;;7.20;4.97;;;7.60;99.90;;;;;;4955695;28;21672;-32
2023/03/17 09:13:45;;;;;;;8.52;5.57;;;7.70;99.90;;;;;;4962488;28;20027;-33
2023/03/17 09:16:11;;;;;;;6.65;5.07;;;7.90;99.90;;;;;;4957804;28;20181;-32
2023/03/17 09:18:37;;;;;;;5.03;4.00;;;8.00;99.90;;;;;;4954081;28;20035;-33
2023/03/17 09:21:04;;;;;;;5.18;4.68;;;8.20;99.90;;;;;;4960697;28;20633;-34
2023/03/17 09:23:30;;;;;;;5.82;5.18;;;8.50;99.90;;;;;;4964815;28;20373;-34
2023/03/17 09:25:56;;;;;;;5.93;4.60;;;8.60;99.90;;;;;;4960663;28;20093;-36
2023/03/17 09:28:22;;;;;;;6.70;4.10;;;8.70;99.90;;;;;;4971522;28;20035;-33
2023/03/17 09:30:48;;;;;;;6.38;4.95;;;8.80;99.90;;;;;;4980031;28;20051;-34
2023/03/17 09:33:14;;;;;;;7.90;4.43;;;8.90;99.90;;;;;;4961313;28;20342;-34
2023/03/17 09:35:40;;;;;;;7.45;4.55;;;9.00;99.90;;;;;;4961001;28;20035;-34
2023/03/17 09:38:07;;;;;;;5.60;4.07;;;9.20;99.90;;;;;;4964020;28;20114;-34
2023/03/17 09:40:38;;;;;;;7.13;4.50;;;9.30;99.90;;;;;;4958722;28;20042;-35
2023/03/17 09:43:41;;;;;;;4.72;3.78;;;9.30;99.90;;;;;;4960523;28;20579;-34
2023/03/17 09:46:46;;;;;;;4.68;3.80;;;9.50;99.90;;;;;;4967517;28;20046;-35
2023/03/17 09:49:13;;;;;;;4.70;3.50;;;9.70;99.90;;;;;;4957807;28;20429;-33
2023/03/17 09:51:39;;;;;;;5.05;4.10;;;9.80;99.90;;;;;;4947171;28;20047;-34
2023/03/17 09:54:19;;;;;;;7.10;4.40;;;9.90;99.90;;;;;;4950100;28;20022;-34
2023/03/17 09:56:49;;;;;;;7.07;4.05;;;10.00;99.90;;;;;;4964135;28;20038;-33
2023/03/17 09:59:33;;;;;;;6.75;4.18;;;10.00;98.30;;;;;;4960209;28;20038;-31
2023/03/17 10:02:00;;;;;;;4.53;3.88;;;10.20;99.90;;;;;;4964481;28;20053;-32
2023/03/17 10:04:26;;;;;;;5.78;4.22;;;10.30;99.90;;;;;;4966274;28;20034;-33
2023/03/17 10:07:03;;;;;;;4.70;3.85;;;10.30;99.40;;;;;;4962112;28;20035;-34
2023/03/17 10:09:29;;;;;;;5.38;4.03;;;10.50;99.60;;;;;;4966967;28;20086;-34
2023/03/17 10:12:32;;;;;;;5.75;4.50;;;10.50;99.90;;;;;;4968097;28;20030;-30
2023/03/17 10:15:02;;;;;;;6.68;4.03;;;10.50;97.20;;;;;;4960769;28;20035;-33
2023/03/17 10:17:33;;;;;;;5.03;3.60;;;10.70;95.60;;;;;;4962507;28;20039;-34
2023/03/17 10:20:13;;;;;;;5.28;3.83;;;10.70;96.10;;;;;;4967201;28;20073;-32
2023/03/17 10:22:56;;;;;;;5.10;3.88;;;10.80;92.00;;;;;;4958743;28;20084;-33
2023/03/17 10:25:30;;;;;;;4.97;3.95;;;11.00;96.80;;;;;;4965255;28;20073;-33
2023/03/17 10:28:04;;;;;;;3.53;2.95;;;11.30;93.50;;;;;;4961891;28;20461;-32
2023/03/17 10:30:33;;;;;;;6.07;3.90;;;11.10;90.60;;;;;;4964172;28;20070;-35
2023/03/17 10:33:00;;;;;;;5.18;3.72;;;11.20;86.50;;;;;;4966728;28;20027;-36
2023/03/17 10:35:27;;;;;;;5.67;3.87;;;11.30;85.30;;;;;;4965343;28;20033;-35
2023/03/17 10:37:52;;;;;;;6.72;4.15;;;11.60;88.40;;;;;;4965517;28;20041;-33
2023/03/17 10:40:27;;;;;;;5.57;3.22;;;11.60;83.40;;;;;;4966867;28;20038;-34
2023/03/17 10:43:06;;;;;;;5.47;3.88;;;11.50;83.00;;;;;;4966576;28;20113;-32
2023/03/17 10:45:34;;;;;;;6.05;3.70;;;11.60;84.90;;;;;;4962114;28;20054;-32
2023/03/17 10:48:03;;;;;;;4.18;3.40;;;11.60;90.10;;;;;;4968368;28;20053;-31
2023/03/17 10:50:39;;;;;;;4.22;3.83;;;11.50;87.20;;;;;;4959858;28;20042;-34
2023/03/17 10:53:26;;;;;;;5.90;3.58;;;11.80;87.10;;;;;;4969487;28;20035;-34
2023/03/17 10:56:06;;;;;;;8.52;3.40;;;11.90;86.50;;;;;;4963533;28;20031;-31
2023/03/17 10:58:39;;;;;;;4.32;3.40;;;11.90;81.90;;;;;;4966327;28;20035;-32
2023/03/17 11:01:14;;;;;;;4.18;2.75;;;12.20;86.30;;;;;;4969512;28;20035;-34
2023/03/17 11:03:40;;;;;;;3.83;3.53;;;12.60;78.20;;;;;;4977568;28;20030;-33
2023/03/17 11:06:07;;;;;;;7.60;4.25;;;12.80;82.50;;;;;;4967882;28;20046;-31
2023/03/17 11:08:54;;;;;;;4.68;3.58;;;13.10;80.10;;;;;;4959607;28;20400;-34
2023/03/17 11:11:33;;;;;;;4.43;3.38;;;13.00;81.00;;;;;;4960541;28;20037;-34
2023/03/17 11:14:09;;;;;;;5.68;3.75;;;12.90;81.30;;;;;;4969476;28;20389;-34
2023/03/17 11:16:37;;;;;;;7.13;3.85;;;13.00;78.60;;;;;;4960717;28;20027;-33
2023/03/17 11:19:06;;;;;;;4.65;3.38;;;13.20;87.20;;;;;;4963592;28;20018;-34
2023/03/17 11:21:49;;;;;;;3.92;3.53;;;13.10;74.70;;;;;;4964684;28;20065;-34
2023/03/17 11:24:30;;;;;;;6.57;3.70;;;13.30;69.80;;;;;;4970091;28;20034;-32
2023/03/17 11:27:07;;;;;;;5.25;4.00;;;13.30;77.40;;;;;;4963454;28;20058;-34
2023/03/17 11:30:00;;;;;;;5.03;3.70;;;13.20;75.30;;;;;;4966905;28;20459;-34
2023/03/17 11:32:32;;;;;;;4.47;3.78;;;13.10;74.50;;;;;;4991307;28;20023;-34
2023/03/17 11:35:22;;;;;;;5.13;3.80;;;13.20;75.40;;;;;;4965186;28;20389;-32
2023/03/17 11:38:27;;;;;;;5.47;3.72;;;13.40;73.40;;;;;;4969522;28;20034;-33
2023/03/17 11:41:11;;;;;;;6.05;3.80;;;13.50;74.80;;;;;;4965393;28;20081;-34
2023/03/17 11:44:01;;;;;;;4.53;3.97;;;13.70;88.30;;;;;;4962810;28;20038;-35
2023/03/17 11:46:36;;;;;;;4.15;3.25;;;13.90;75.70;;;;;;4963341;28;20038;-32
2023/03/17 11:49:27;;;;;;;4.32;3.40;;;13.90;70.10;;;;;;4966968;28;20541;-32
2023/03/17 11:52:03;;;;;;;4.32;3.92;;;13.90;72.80;;;;;;4961749;28;20042;-32
2023/03/17 11:54:35;;;;;;;4.82;3.40;;;14.10;73.80;;;;;;4961273;28;20027;-33
2023/03/17 11:57:07;;;;;;;6.72;3.78;;;14.10;68.90;;;;;;4957987;28;20023;-34
2023/03/17 11:59:58;;;;;;;4.07;3.47;;;14.00;71.60;;;;;;4957651;28;20050;-34
2023/03/17 12:02:28;;;;;;;6.32;3.58;;;14.00;71.70;;;;;;4956698;28;20658;-34
2023/03/17 12:05:03;;;;;;;5.22;3.45;;;14.10;70.60;;;;;;4959250;28;20027;-31
2023/03/17 12:07:52;;;;;;;4.75;3.58;;;14.20;70.60;;;;;;4960352;28;20033;-32
2023/03/17 12:10:21;;;;;;;;;;;14.10;67.30;;;;;;4967537;28;20588;-33
2023/03/17 12:13:00;;;;;;;6.03;3.95;;;14.20;71.00;;;;;;4961531;28;19940;-32
2023/03/17 12:15:43;;;;;;;5.72;3.55;;;14.10;65.10;;;;;;4961082;28;20055;-32
2023/03/17 12:18:33;;;;;;;4.93;3.58;;;14.30;64.50;;;;;;4964627;28;20023;-31
2023/03/17 12:21:04;;;;;;;6.22;4.65;;;14.30;66.10;;;;;;4971257;28;20035;-32
2023/03/17 12:23:47;;;;;;;7.35;3.63;;;14.30;65.80;;;;;;4964275;28;20038;-31
2023/03/17 12:26:19;;;;;;;5.85;4.15;;;14.50;68.40;;;;;;4960907;28;20454;-33
2023/03/17 12:28:55;;;;;;;5.03;3.80;;;14.40;66.40;;;;;;4968508;28;20034;-34
2023/03/17 12:31:31;;;;;;;5.35;3.60;;;14.60;72.00;;;;;;4987944;28;20131;-32
2023/03/17 12:34:14;;;;;;;6.38;4.38;;;14.70;72.00;;;;;;4955286;28;20536;-33
2023/03/17 12:36:41;;;;;;;6.15;3.72;;;14.60;68.70;;;;;;4961265;28;20564;-33
2023/03/17 12:39:22;;;;;;;5.57;3.80;;;14.80;68.10;;;;;;4966837;28;20615;-34
2023/03/17 12:42:26;;;;;;;4.57;3.70;;;14.80;66.50;;;;;;4957688;28;20377;-32
2023/03/17 12:45:41;;;;;;;3.80;3.50;;;14.80;63.60;;;;;;4956532;28;20042;-32
2023/03/17 12:48:36;;;;;;;4.60;3.55;;;14.80;66.20;;;;;;4996313;28;20050;-31
2023/03/17 12:51:31;;;;;;;6.93;3.80;;;14.90;63.60;;;;;;4928142;28;1104106;-32
2023/03/17 12:53:59;;;;;;;4.13;3.45;;;14.90;63.30;;;;;;4963598;28;20035;-31
2023/03/17 12:56:32;;;;;;;7.68;4.00;;;14.80;63.10;;;;;;4969490;28;20038;-31
2023/03/17 12:59:07;;;;;;;3.90;3.50;;;14.70;67.10;;;;;;4965696;28;20102;-33
2023/03/17 13:01:39;;;;;;;5.40;3.90;;;14.80;64.00;;;;;;4966130;28;20061;-32
2023/03/17 13:04:07;;;;;;;5.43;4.10;;;14.80;65.30;;;;;;4966963;28;20033;-32